Time;durP1;ratioP1;P1;durP2;ratioP2;P2;SDS_P1;SDS_P2;PMS_P1;PMS_P2;Temp;Humidity;BMP_temperature;BMP_pressure;BME280_temperature;BME280_humidity;BME280_pressure;Samples;Min_cycle;Max_cycle;Signal;HPM_P1;HPM_P2
2021/10/13 09:33:15;;;;;;;5.10;1.98;;;;;;;;;;3829715;37;20062;-65
2021/10/13 09:35:51;;;;;;;5.93;1.87;;;;;;;;;;4378166;32;20072;-64
2021/10/13 09:38:23;;;;;;;3.42;2.08;;;;;;;;;;4368806;32;20086;-64
2021/10/13 09:40:51;;;;;;;2.17;1.98;;;;;;;;;;4378789;32;20081;-66
2021/10/13 09:43:37;;;;;;;3.53;2.08;;;;;;;;;;4368943;32;20073;-67
2021/10/13 09:46:05;;;;;;;6.32;2.17;;;;;;;;;;4350616;32;20089;-66
2021/10/13 09:48:32;;;;;;;6.43;2.40;;;;;;;;;;4375725;32;20100;-65
2021/10/13 09:51:11;;;;;;;3.05;2.20;;;;;;;;;;4362674;32;20082;-64
2021/10/13 09:53:37;;;;;;;3.80;2.42;;;;;;;;;;4339229;32;20179;-66
2021/10/13 09:56:04;;;;;;;1.33;1.23;;;;;;;;;;4388414;32;20082;-66
2021/10/13 09:58:34;;;;;;;4.18;2.20;;;;;;;;;;4358507;32;20074;-65
2021/10/13 10:01:14;;;;;;;6.10;2.60;;;;;;;;;;4348269;32;20078;-65
2021/10/13 10:03:42;;;;;;;4.35;2.30;;;;;;;;;;4359929;32;20547;-63
2021/10/13 10:06:09;;;;;;;4.97;2.62;;;;;;;;;;4347099;32;20083;-64
2021/10/13 10:08:54;;;;;;;3.30;1.98;;;;;;;;;;4360969;32;20078;-72
2021/10/13 10:11:28;;;;;;;7.90;2.75;;;;;;;;;;4361451;32;20499;-65
2021/10/13 10:13:55;;;;;;;3.67;2.50;;;;;;;;;;4348766;32;20613;-66
2021/10/13 10:16:33;;;;;;;4.10;2.30;;;;;;;;;;4348623;32;20469;-64
2021/10/13 10:19:19;;;;;;;5.25;2.50;;;;;;;;;;4338020;32;20089;-65
2021/10/13 10:22:06;;;;;;;6.35;2.92;;;;;;;;;;4374808;32;20563;-65
2021/10/13 10:24:33;;;;;;;;;;;;;;;;;;4364522;32;20155;-63
2021/10/13 10:27:18;;;;;;;;;;;;;;;;;;4362836;32;19965;-65
2021/10/13 10:29:44;;;;;;;5.40;2.67;;;;;;;;;;4374871;32;19969;-64
2021/10/13 10:32:18;;;;;;;3.83;2.28;;;;;;;;;;4349649;32;20081;-64
2021/10/13 10:35:04;;;;;;;3.72;2.50;;;;;;;;;;4350546;32;20081;-64
2021/10/13 10:37:50;;;;;;;4.68;2.47;;;;;;;;;;4373810;32;20452;-65
2021/10/13 10:40:26;;;;;;;3.62;2.17;;;;;;;;;;4362555;32;20100;-64
2021/10/13 10:42:59;;;;;;;6.22;2.62;;;;;;;;;;4370832;32;20161;-65
2021/10/13 10:45:31;;;;;;;3.67;2.53;;;;;;;;;;4339946;32;20066;-64
2021/10/13 10:48:01;;;;;;;4.00;2.00;;;;;;;;;;4340212;32;20476;-63
2021/10/13 10:50:31;;;;;;;7.65;2.40;;;;;;;;;;4353677;32;20604;-65
2021/10/13 10:53:38;;;;;;;3.50;2.80;;;;;;;;;;4365721;32;20096;-64
2021/10/13 10:56:25;;;;;;;6.43;2.50;;;;;;;;;;4278413;33;20660;-63
2021/10/13 10:59:11;;;;;;;5.78;2.67;;;;;;;;;;4362370;32;20077;-64
2021/10/13 11:01:39;;;;;;;5.57;2.80;;;;;;;;;;4352170;32;20074;-64
2021/10/13 11:04:09;;;;;;;4.65;2.40;;;;;;;;;;4340171;32;20444;-65
2021/10/13 11:06:37;;;;;;;5.43;2.08;;;;;;;;;;4352207;32;20105;-65
2021/10/13 11:09:05;;;;;;;6.07;3.05;;;;;;;;;;4340099;32;20094;-65
2021/10/13 11:11:34;;;;;;;4.20;2.75;;;;;;;;;;4351697;32;20082;-64
2021/10/13 11:14:01;;;;;;;5.12;2.70;;;;;;;;;;4352143;32;20077;-65
2021/10/13 11:16:28;;;;;;;2.90;2.00;;;;;;;;;;4340020;32;20164;-65
2021/10/13 11:19:04;;;;;;;2.15;1.27;;;;;;;;;;4353150;32;20082;-65
2021/10/13 11:21:31;;;;;;;5.78;2.60;;;;;;;;;;4340969;32;20074;-65
2021/10/13 11:23:59;;;;;;;2.87;1.95;;;;;;;;;;4351715;32;20088;-64
2021/10/13 11:26:29;;;;;;;3.97;2.20;;;;;;;;;;4354949;32;20085;-65
2021/10/13 11:28:55;;;;;;;2.75;1.77;;;;;;;;;;4327933;32;20082;-65
2021/10/13 11:31:22;;;;;;;4.80;2.35;;;;;;;;;;4377171;32;20089;-65
2021/10/13 11:33:48;;;;;;;5.75;2.35;;;;;;;;;;4351873;32;20116;-63
2021/10/13 11:36:15;;;;;;;6.22;2.45;;;;;;;;;;4351553;32;20085;-65
2021/10/13 11:38:42;;;;;;;3.72;1.73;;;;;;;;;;4363779;32;20070;-65
2021/10/13 11:41:15;;;;;;;5.10;2.30;;;;;;;;;;4327004;32;20089;-65
2021/10/13 11:43:42;;;;;;;4.30;1.92;;;;;;;;;;4351788;32;20138;-64
2021/10/13 11:46:19;;;;;;;5.78;2.30;;;;;;;;;;4339414;32;20082;-65
2021/10/13 11:48:45;;;;;;;5.15;2.53;;;;;;;;;;4352705;32;20082;-65
2021/10/13 11:51:13;;;;;;;2.83;1.92;;;;;;;;;;4351165;32;20103;-65
2021/10/13 11:53:41;;;;;;;3.72;2.00;;;;;;;;;;4351351;32;20155;-66
2021/10/13 11:56:09;;;;;;;3.45;1.98;;;;;;;;;;4338370;32;20583;-66
2021/10/13 11:58:36;;;;;;;3.90;2.20;;;;;;;;;;4351597;32;20166;-66
2021/10/13 12:01:02;;;;;;;7.37;2.42;;;;;;;;;;4338639;32;20517;-66
2021/10/13 12:03:36;;;;;;;2.75;2.08;;;;;;;;;;4377203;32;20163;-67
2021/10/13 12:06:03;;;;;;;5.32;2.35;;;;;;;;;;4339444;32;20066;-64
2021/10/13 12:08:36;;;;;;;4.85;2.20;;;;;;;;;;4339007;32;20589;-63
2021/10/13 12:11:09;;;;;;;8.27;2.30;;;;;;;;;;4351116;32;20081;-63
2021/10/13 12:13:38;;;;;;;3.60;2.20;;;;;;;;;;4362378;32;20078;-64
2021/10/13 12:16:09;;;;;;;3.65;2.10;;;;;;;;;;4339464;32;20078;-65
2021/10/13 12:18:48;;;;;;;4.40;2.50;;;;;;;;;;4340695;32;20146;-64
2021/10/13 12:21:19;;;;;;;4.72;2.70;;;;;;;;;;4364973;32;20154;-71
2021/10/13 12:23:54;;;;;;;4.65;2.33;;;;;;;;;;4339281;32;20146;-69
2021/10/13 12:26:26;;;;;;;3.70;2.30;;;;;;;;;;4351572;32;20097;-71
2021/10/13 12:28:54;;;;;;;3.80;2.25;;;;;;;;;;4352748;32;20063;-72
2021/10/13 12:31:22;;;;;;;3.12;1.90;;;;;;;;;;4339027;32;20082;-71
2021/10/13 12:34:02;;;;;;;6.00;2.65;;;;;;;;;;4338743;32;20190;-72
2021/10/13 12:36:39;;;;;;;6.05;2.72;;;;;;;;;;4350396;32;20090;-72
2021/10/13 12:39:11;;;;;;;8.32;2.83;;;;;;;;;;4350845;32;20504;-72
2021/10/13 12:41:43;;;;;;;5.10;2.67;;;;;;;;;;4351031;32;20529;-73
2021/10/13 12:44:23;;;;;;;8.23;2.60;;;;;;;;;;4350769;32;20063;-72
2021/10/13 12:47:20;;;;;;;5.25;2.75;;;;;;;;;;4350320;32;20426;-70
2021/10/13 12:49:55;;;;;;;6.87;2.28;;;;;;;;;;4365577;32;20074;-71
2021/10/13 12:52:22;;;;;;;1.85;1.45;;;;;;;;;;4339314;32;20146;-73
2021/10/13 12:54:56;;;;;;;7.37;2.92;;;;;;;;;;4362496;32;20097;-69
2021/10/13 12:57:27;;;;;;;4.72;2.08;;;;;;;;;;4351034;32;20119;-69
2021/10/13 12:59:54;;;;;;;4.35;2.58;;;;;;;;;;4350376;32;20167;-70
2021/10/13 13:02:20;;;;;;;4.25;2.05;;;;;;;;;;4349328;32;20499;-72
2021/10/13 13:04:47;;;;;;;6.15;2.40;;;;;;;;;;4350672;32;20082;-72
2021/10/13 13:07:14;;;;;;;5.15;2.47;;;;;;;;;;4325901;32;20098;-73
2021/10/13 13:09:41;;;;;;;3.62;2.17;;;;;;;;;;4365021;32;20058;-74
2021/10/13 13:12:08;;;;;;;4.30;2.12;;;;;;;;;;4337567;32;20529;-72
2021/10/13 13:14:35;;;;;;;2.72;2.05;;;;;;;;;;4349967;32;20089;-72
2021/10/13 13:17:03;;;;;;;5.78;2.33;;;;;;;;;;4350299;32;20182;-72
2021/10/13 13:19:29;;;;;;;6.07;2.42;;;;;;;;;;4350985;32;20151;-70
2021/10/13 13:21:56;;;;;;;8.85;2.97;;;;;;;;;;4337832;32;20481;-71
2021/10/13 13:24:23;;;;;;;3.92;2.17;;;;;;;;;;4362924;32;20146;-72
2021/10/13 13:26:49;;;;;;;9.43;2.70;;;;;;;;;;4350114;32;20160;-73
2021/10/13 13:29:17;;;;;;;3.20;2.20;;;;;;;;;;4337780;32;20081;-71
2021/10/13 13:31:44;;;;;;;4.90;2.30;;;;;;;;;;4325805;32;20090;-71
2021/10/13 13:34:11;;;;;;;4.80;2.50;;;;;;;;;;4337763;32;20156;-70
2021/10/13 13:36:38;;;;;;;9.20;2.65;;;;;;;;;;4337599;32;20085;-71
2021/10/13 13:39:05;;;;;;;7.07;2.58;;;;;;;;;;4349830;32;20082;-71
2021/10/13 13:41:31;;;;;;;4.43;2.37;;;;;;;;;;4362221;32;20135;-71
2021/10/13 13:43:58;;;;;;;3.62;2.67;;;;;;;;;;4350424;32;20162;-71
2021/10/13 13:46:25;;;;;;;4.70;2.72;;;;;;;;;;4338105;32;20515;-74
2021/10/13 13:48:51;;;;;;;7.05;2.53;;;;;;;;;;4337549;32;20106;-74
2021/10/13 13:51:18;;;;;;;4.50;2.62;;;;;;;;;;4361544;32;20086;-71
2021/10/13 13:53:45;;;;;;;3.60;2.45;;;;;;;;;;4338144;32;20070;-72
2021/10/13 13:56:12;;;;;;;4.87;2.62;;;;;;;;;;4349859;32;20070;-73
2021/10/13 13:58:42;;;;;;;6.20;3.15;;;;;;;;;;4337893;32;20102;-72
2021/10/13 14:01:09;;;;;;;7.37;3.35;;;;;;;;;;4337532;32;20089;-72
2021/10/13 14:03:35;;;;;;;4.20;2.40;;;;;;;;;;4337479;32;20150;-73
2021/10/13 14:06:02;;;;;;;8.15;2.60;;;;;;;;;;4363333;32;20178;-72
2021/10/13 14:08:29;;;;;;;4.32;2.60;;;;;;;;;;4361994;32;20167;-73
2021/10/13 14:10:57;;;;;;;3.87;2.70;;;;;;;;;;4362520;32;20153;-72
2021/10/13 14:13:23;;;;;;;5.82;2.65;;;;;;;;;;4350826;32;20074;-72
2021/10/13 14:15:50;;;;;;;6.15;2.40;;;;;;;;;;4349702;32;20096;-73
2021/10/13 14:18:16;;;;;;;4.57;2.30;;;;;;;;;;4376814;32;20081;-69
2021/10/13 14:20:43;;;;;;;6.15;2.80;;;;;;;;;;4352988;32;20073;-71
2021/10/13 14:23:09;;;;;;;5.05;2.60;;;;;;;;;;4352532;32;20074;-72
2021/10/13 14:25:36;;;;;;;5.37;3.15;;;;;;;;;;4351992;32;20509;-72
2021/10/13 14:28:02;;;;;;;5.47;2.53;;;;;;;;;;4364776;32;20078;-73
2021/10/13 14:30:29;;;;;;;4.75;2.40;;;;;;;;;;4340068;32;20247;-70
2021/10/13 14:32:57;;;;;;;6.62;2.10;;;;;;;;;;4378418;32;20092;-72
2021/10/13 14:35:24;;;;;;;7.45;2.60;;;;;;;;;;4352676;32;20086;-72
2021/10/13 14:37:51;;;;;;;4.68;2.37;;;;;;;;;;4339700;32;20088;-71
2021/10/13 14:40:19;;;;;;;7.43;2.65;;;;;;;;;;4352509;32;20085;-73
2021/10/13 14:42:46;;;;;;;4.37;2.75;;;;;;;;;;4341060;32;20090;-72
2021/10/13 14:45:14;;;;;;;5.50;2.20;;;;;;;;;;4364654;32;20062;-72
2021/10/13 14:47:41;;;;;;;6.37;2.58;;;;;;;;;;4340005;32;20089;-70
2021/10/13 14:50:08;;;;;;;6.72;1.95;;;;;;;;;;4365230;32;20134;-72
2021/10/13 14:52:34;;;;;;;5.65;2.30;;;;;;;;;;4340785;32;20082;-72
2021/10/13 14:55:01;;;;;;;4.80;2.50;;;;;;;;;;4353803;32;20101;-73
2021/10/13 14:57:28;;;;;;;3.47;2.20;;;;;;;;;;4367978;32;20098;-72
2021/10/13 14:59:54;;;;;;;4.32;2.80;;;;;;;;;;4353145;32;20070;-72
2021/10/13 15:02:21;;;;;;;3.12;2.10;;;;;;;;;;4378834;32;20081;-71
2021/10/13 15:04:47;;;;;;;4.12;2.20;;;;;;;;;;4339444;32;20085;-71
2021/10/13 15:07:14;;;;;;;6.80;1.77;;;;;;;;;;4340058;32;20149;-71
2021/10/13 15:09:40;;;;;;;3.40;2.20;;;;;;;;;;4351994;32;20079;-72
2021/10/13 15:12:07;;;;;;;2.90;2.12;;;;;;;;;;4378217;32;20062;-71
2021/10/13 15:14:37;;;;;;;4.90;2.40;;;;;;;;;;4378358;32;20165;-71
2021/10/13 15:17:07;;;;;;;3.85;2.33;;;;;;;;;;4352735;32;20192;-72
2021/10/13 15:19:34;;;;;;;5.55;2.22;;;;;;;;;;4364319;32;20116;-72
2021/10/13 15:22:02;;;;;;;5.53;2.22;;;;;;;;;;4351997;32;20073;-69
2021/10/13 15:24:31;;;;;;;6.45;1.60;;;;;;;;;;4351851;32;20097;-71
2021/10/13 15:26:58;;;;;;;5.65;1.90;;;;;;;;;;4364713;32;20067;-72
2021/10/13 15:29:25;;;;;;;3.37;2.20;;;;;;;;;;4351505;32;20178;-71
2021/10/13 15:31:53;;;;;;;4.95;2.12;;;;;;;;;;4327225;32;20105;-73
2021/10/13 15:34:19;;;;;;;4.32;2.20;;;;;;;;;;4339878;32;20093;-74
2021/10/13 15:36:46;;;;;;;3.92;2.60;;;;;;;;;;4340079;32;20085;-72
2021/10/13 15:39:13;;;;;;;7.68;2.47;;;;;;;;;;4339405;32;20155;-73
2021/10/13 15:41:40;;;;;;;7.85;2.12;;;;;;;;;;4351686;32;20091;-73
2021/10/13 15:44:07;;;;;;;3.17;2.10;;;;;;;;;;4352366;32;20148;-72
2021/10/13 15:46:34;;;;;;;4.22;2.20;;;;;;;;;;4339237;32;20086;-72
2021/10/13 15:49:01;;;;;;;5.72;2.58;;;;;;;;;;4351438;32;20098;-73
2021/10/13 15:51:28;;;;;;;6.32;2.65;;;;;;;;;;4339184;32;20082;-72
2021/10/13 15:53:55;;;;;;;8.48;2.25;;;;;;;;;;4338931;32;20085;-71
2021/10/13 15:56:21;;;;;;;8.60;2.53;;;;;;;;;;4363696;32;20154;-72
2021/10/13 15:58:48;;;;;;;4.50;2.30;;;;;;;;;;4339173;32;20079;-71
2021/10/13 16:01:15;;;;;;;3.60;2.20;;;;;;;;;;4339276;32;20102;-72
2021/10/13 16:03:42;;;;;;;4.87;2.05;;;;;;;;;;4364128;32;20082;-72
2021/10/13 16:06:08;;;;;;;5.00;2.30;;;;;;;;;;4351752;32;20089;-72
2021/10/13 16:08:36;;;;;;;4.03;2.03;;;;;;;;;;4339125;32;20078;-72
2021/10/13 16:11:03;;;;;;;4.57;2.60;;;;;;;;;;4339278;32;20086;-72
2021/10/13 16:13:29;;;;;;;4.62;2.65;;;;;;;;;;4376994;32;20078;-72
2021/10/13 16:15:56;;;;;;;2.28;2.08;;;;;;;;;;4363510;32;20497;-72
2021/10/13 16:18:23;;;;;;;7.15;2.12;;;;;;;;;;4351447;32;20134;-72
2021/10/13 16:20:51;;;;;;;6.05;2.47;;;;;;;;;;4377230;32;20077;-73
2021/10/13 16:23:18;;;;;;;6.82;2.55;;;;;;;;;;4351067;32;20093;-72
2021/10/13 16:25:45;;;;;;;7.25;2.35;;;;;;;;;;4326726;32;20532;-72
2021/10/13 16:28:11;;;;;;;7.82;2.30;;;;;;;;;;4363286;32;20092;-72
2021/10/13 16:30:38;;;;;;;3.62;2.58;;;;;;;;;;4339060;32;20442;-72
2021/10/13 16:33:04;;;;;;;4.35;2.50;;;;;;;;;;4368521;32;20129;-74
2021/10/13 16:35:32;;;;;;;4.30;1.98;;;;;;;;;;4377976;32;20067;-73
2021/10/13 16:37:59;;;;;;;5.70;2.40;;;;;;;;;;4326740;32;20101;-72
2021/10/13 16:40:26;;;;;;;4.78;2.08;;;;;;;;;;4362810;32;20081;-72
2021/10/13 16:42:53;;;;;;;5.55;2.50;;;;;;;;;;4350617;32;20192;-73
2021/10/13 16:45:20;;;;;;;5.95;2.80;;;;;;;;;;4326441;32;20074;-71
2021/10/13 16:47:46;;;;;;;9.63;2.50;;;;;;;;;;4363379;32;20496;-74
2021/10/13 16:50:13;;;;;;;6.78;2.20;;;;;;;;;;4350842;32;20071;-72
2021/10/13 16:52:40;;;;;;;7.70;2.83;;;;;;;;;;4338371;32;20082;-72
2021/10/13 16:55:07;;;;;;;6.47;2.80;;;;;;;;;;4351013;32;20072;-72
2021/10/13 16:57:34;;;;;;;6.40;2.95;;;;;;;;;;4338367;32;20497;-72
2021/10/13 17:00:01;;;;;;;4.82;2.75;;;;;;;;;;4350287;32;20156;-73
2021/10/13 17:02:29;;;;;;;6.60;3.62;;;;;;;;;;4338278;32;20088;-72
2021/10/13 17:04:55;;;;;;;6.90;3.90;;;;;;;;;;4362673;32;20089;-72
2021/10/13 17:07:22;;;;;;;6.35;3.80;;;;;;;;;;4363009;32;20105;-73
2021/10/13 17:09:48;;;;;;;10.18;4.32;;;;;;;;;;4362649;32;20110;-73
2021/10/13 17:12:15;;;;;;;7.35;4.43;;;;;;;;;;4362599;32;20078;-72
2021/10/13 17:14:42;;;;;;;8.23;3.87;;;;;;;;;;4350869;32;20082;-72
2021/10/13 17:17:09;;;;;;;9.38;4.20;;;;;;;;;;4350239;32;20536;-72
2021/10/13 17:19:35;;;;;;;9.20;4.12;;;;;;;;;;4350919;32;20141;-72
2021/10/13 17:22:01;;;;;;;10.30;4.75;;;;;;;;;;4351832;32;20080;-71
2021/10/13 17:24:28;;;;;;;9.13;4.40;;;;;;;;;;4362232;32;20083;-73
2021/10/13 17:26:55;;;;;;;12.13;5.28;;;;;;;;;;4362689;32;20085;-72
2021/10/13 17:29:21;;;;;;;10.43;4.18;;;;;;;;;;4350093;32;20077;-72
2021/10/13 17:31:48;;;;;;;8.95;4.65;;;;;;;;;;4337708;32;20145;-72
2021/10/13 17:34:14;;;;;;;8.10;4.37;;;;;;;;;;4362914;32;20078;-72
2021/10/13 17:36:41;;;;;;;9.70;4.87;;;;;;;;;;4339174;32;20082;-72
2021/10/13 17:39:07;;;;;;;8.70;5.15;;;;;;;;;;4376966;32;20109;-74
2021/10/13 17:41:34;;;;;;;10.32;5.10;;;;;;;;;;4337963;32;20065;-72
2021/10/13 17:44:00;;;;;;;8.68;4.95;;;;;;;;;;4325843;32;20073;-73
2021/10/13 17:46:29;;;;;;;7.20;5.05;;;;;;;;;;4337912;32;20088;-72
2021/10/13 17:48:56;;;;;;;8.80;5.00;;;;;;;;;;4350437;32;20530;-73
2021/10/13 17:51:22;;;;;;;11.15;5.05;;;;;;;;;;4337680;32;20104;-72
2021/10/13 17:53:49;;;;;;;12.50;5.00;;;;;;;;;;4351812;32;20153;-73
2021/10/13 17:56:15;;;;;;;7.45;4.35;;;;;;;;;;4353034;32;20097;-73
2021/10/13 17:58:42;;;;;;;6.90;4.12;;;;;;;;;;4352725;32;20138;-72
2021/10/13 18:01:08;;;;;;;7.00;4.45;;;;;;;;;;4353017;32;20078;-72
2021/10/13 18:03:35;;;;;;;8.55;3.92;;;;;;;;;;4353313;32;20074;-73
2021/10/13 18:06:01;;;;;;;8.18;3.97;;;;;;;;;;4378718;32;20169;-72
2021/10/13 18:08:29;;;;;;;10.57;3.85;;;;;;;;;;4365540;32;20081;-73
2021/10/13 18:10:56;;;;;;;9.30;3.70;;;;;;;;;;4365189;32;20080;-72
2021/10/13 18:13:23;;;;;;;9.35;3.15;;;;;;;;;;4340446;32;20086;-72
2021/10/13 18:15:50;;;;;;;5.07;3.33;;;;;;;;;;4352695;32;20081;-72
2021/10/13 18:18:17;;;;;;;9.05;3.20;;;;;;;;;;4352545;32;20097;-72
2021/10/13 18:20:43;;;;;;;7.40;3.92;;;;;;;;;;4340733;32;20089;-72
2021/10/13 18:23:10;;;;;;;6.28;3.28;;;;;;;;;;4365158;32;20077;-72
2021/10/13 18:25:38;;;;;;;10.20;2.97;;;;;;;;;;4340852;32;20089;-73
2021/10/13 18:28:04;;;;;;;7.20;2.87;;;;;;;;;;4340728;32;20158;-72
2021/10/13 18:30:31;;;;;;;8.00;3.45;;;;;;;;;;4327819;32;20082;-72
2021/10/13 18:32:57;;;;;;;7.80;3.12;;;;;;;;;;4339654;32;20089;-72
2021/10/13 18:35:27;;;;;;;10.63;3.08;;;;;;;;;;4352877;32;20086;-70
2021/10/13 18:37:54;;;;;;;7.10;3.35;;;;;;;;;;4340855;32;20062;-71
2021/10/13 18:40:20;;;;;;;9.10;2.95;;;;;;;;;;4340518;32;20150;-72
2021/10/13 18:42:47;;;;;;;9.27;3.35;;;;;;;;;;4340069;32;20082;-72
2021/10/13 18:45:13;;;;;;;7.55;3.20;;;;;;;;;;4339780;32;20524;-73
2021/10/13 18:47:41;;;;;;;5.70;2.67;;;;;;;;;;4352034;32;20098;-73
2021/10/13 18:50:08;;;;;;;5.45;3.25;;;;;;;;;;4365037;32;20543;-73
2021/10/13 18:52:35;;;;;;;5.75;3.05;;;;;;;;;;4364545;32;20086;-72
2021/10/13 18:55:01;;;;;;;5.45;2.78;;;;;;;;;;4352407;32;20078;-72
2021/10/13 18:57:28;;;;;;;4.43;2.90;;;;;;;;;;4327745;32;20154;-72
2021/10/13 18:59:55;;;;;;;6.25;2.90;;;;;;;;;;4352520;32;20095;-73
2021/10/13 19:02:21;;;;;;;8.43;2.83;;;;;;;;;;4352010;32;20098;-72
2021/10/13 19:04:48;;;;;;;7.60;3.30;;;;;;;;;;4339582;32;20514;-73
2021/10/13 19:07:14;;;;;;;5.80;2.53;;;;;;;;;;4328044;32;20078;-71
2021/10/13 19:09:41;;;;;;;5.80;2.70;;;;;;;;;;4339589;32;20157;-72
2021/10/13 19:12:08;;;;;;;7.47;3.00;;;;;;;;;;4340158;32;20067;-72
2021/10/13 19:14:35;;;;;;;6.47;3.05;;;;;;;;;;4364307;32;20501;-72
2021/10/13 19:17:01;;;;;;;5.30;2.85;;;;;;;;;;4351820;32;20062;-72
2021/10/13 19:19:28;;;;;;;10.23;2.67;;;;;;;;;;4339547;32;20520;-72
2021/10/13 19:21:54;;;;;;;5.18;2.90;;;;;;;;;;4339574;32;20086;-72
2021/10/13 19:24:21;;;;;;;2.95;2.15;;;;;;;;;;4364211;32;20073;-73
2021/10/13 19:26:47;;;;;;;4.10;2.15;;;;;;;;;;4364111;32;20089;-72
2021/10/13 19:29:14;;;;;;;7.72;2.78;;;;;;;;;;4363846;32;20149;-72
2021/10/13 19:31:40;;;;;;;6.22;2.85;;;;;;;;;;4339171;32;20086;-72
2021/10/13 19:34:07;;;;;;;4.07;2.92;;;;;;;;;;4327654;32;20066;-73
2021/10/13 19:36:47;;;;;;;4.90;2.20;;;;;;;;;;3857443;37;20082;-72
2021/10/13 19:39:14;;;;;;;5.45;2.17;;;;;;;;;;4406046;32;20075;-72
2021/10/13 19:41:41;;;;;;;4.37;3.00;;;;;;;;;;4393201;32;20639;-72
2021/10/13 19:44:07;;;;;;;5.50;2.47;;;;;;;;;;4393045;32;20108;-71
2021/10/13 19:46:37;;;;;;;4.50;1.92;;;;;;;;;;4393573;32;20093;-72
2021/10/13 19:49:04;;;;;;;5.20;2.35;;;;;;;;;;4394207;32;20069;-72
2021/10/13 19:51:31;;;;;;;4.25;2.35;;;;;;;;;;4393236;32;20081;-72
2021/10/13 19:53:59;;;;;;;7.05;2.35;;;;;;;;;;4405847;32;20070;-73
2021/10/13 19:56:25;;;;;;;3.35;2.30;;;;;;;;;;4418495;32;20153;-72
2021/10/13 19:58:52;;;;;;;4.05;2.22;;;;;;;;;;4418069;32;20077;-72
2021/10/13 20:01:24;;;;;;;4.43;2.15;;;;;;;;;;4418535;32;20081;-71
2021/10/13 20:03:52;;;;;;;4.28;2.40;;;;;;;;;;4418740;32;20070;-72
2021/10/13 20:06:18;;;;;;;3.67;2.10;;;;;;;;;;4405168;32;20479;-71
2021/10/13 20:08:45;;;;;;;3.30;2.03;;;;;;;;;;4380477;32;20089;-72
2021/10/13 20:11:11;;;;;;;3.00;2.00;;;;;;;;;;4380123;32;20073;-72
2021/10/13 20:13:38;;;;;;;4.20;1.90;;;;;;;;;;4380406;32;20148;-72
2021/10/13 20:16:04;;;;;;;2.65;1.83;;;;;;;;;;4394163;32;20522;-72
2021/10/13 20:18:31;;;;;;;4.40;1.95;;;;;;;;;;4393202;32;20102;-72
2021/10/13 20:20:57;;;;;;;4.82;1.90;;;;;;;;;;4418156;32;20077;-72
2021/10/13 20:23:24;;;;;;;3.00;1.90;;;;;;;;;;4404945;32;20073;-72
2021/10/13 20:25:50;;;;;;;4.25;1.62;;;;;;;;;;4405241;32;20112;-72
2021/10/13 20:28:17;;;;;;;3.33;1.60;;;;;;;;;;4393064;32;20081;-72
2021/10/13 20:30:43;;;;;;;4.03;2.12;;;;;;;;;;4380088;32;20069;-71
2021/10/13 20:33:10;;;;;;;2.53;1.70;;;;;;;;;;4404882;32;20165;-72
2021/10/13 20:35:36;;;;;;;3.92;1.90;;;;;;;;;;4379301;32;20239;-72
2021/10/13 20:38:03;;;;;;;2.47;1.62;;;;;;;;;;4404769;32;20506;-73
2021/10/13 20:40:29;;;;;;;5.15;1.98;;;;;;;;;;4404837;32;20084;-72
2021/10/13 20:42:59;;;;;;;4.53;1.60;;;;;;;;;;4417433;32;20077;-72
2021/10/13 20:45:27;;;;;;;3.58;1.65;;;;;;;;;;4393724;32;20496;-72
2021/10/13 20:47:53;;;;;;;2.47;1.65;;;;;;;;;;4371465;32;20503;-72
2021/10/13 20:50:20;;;;;;;3.83;1.52;;;;;;;;;;4382056;32;20504;-72
2021/10/13 20:52:47;;;;;;;2.37;1.35;;;;;;;;;;4369730;32;20073;-71
2021/10/13 20:55:14;;;;;;;2.83;1.48;;;;;;;;;;4407429;32;20069;-72
2021/10/13 20:57:43;;;;;;;3.83;1.67;;;;;;;;;;4407002;32;20070;-72
2021/10/13 21:00:13;;;;;;;8.68;1.85;;;;;;;;;;4395105;32;20153;-73
2021/10/13 21:02:40;;;;;;;2.92;1.30;;;;;;;;;;4383506;32;20156;-72
2021/10/13 21:07:46;;;;;;;2.78;1.40;;;;;;;;;;3858108;37;20058;-72
2021/10/13 21:10:12;;;;;;;4.10;1.83;;;;;;;;;;4405950;32;20501;-72
2021/10/13 21:12:39;;;;;;;2.03;1.45;;;;;;;;;;4393410;32;20088;-72
2021/10/13 21:15:06;;;;;;;1.85;1.70;;;;;;;;;;4405932;32;20079;-72
2021/10/13 21:17:33;;;;;;;2.25;1.40;;;;;;;;;;4393289;32;20078;-72
2021/10/13 21:19:59;;;;;;;1.87;1.20;;;;;;;;;;4393194;32;20507;-72
2021/10/13 21:22:26;;;;;;;2.85;1.60;;;;;;;;;;4405663;32;20080;-72
2021/10/13 21:24:52;;;;;;;2.22;1.30;;;;;;;;;;4406072;32;20518;-72
2021/10/13 21:27:20;;;;;;;2.20;1.37;;;;;;;;;;4419746;32;20101;-72
2021/10/13 21:29:47;;;;;;;2.58;1.80;;;;;;;;;;4405718;32;20095;-71
2021/10/13 21:32:13;;;;;;;1.60;1.35;;;;;;;;;;4405439;32;20165;-73
2021/10/13 21:34:40;;;;;;;4.05;1.60;;;;;;;;;;4393115;32;20161;-72
2021/10/13 21:37:06;;;;;;;3.58;1.87;;;;;;;;;;4405642;32;20065;-72
2021/10/13 21:39:33;;;;;;;1.98;1.30;;;;;;;;;;4405370;32;20170;-71
2021/10/13 21:41:59;;;;;;;2.20;1.42;;;;;;;;;;4418152;32;20092;-72
2021/10/13 21:44:26;;;;;;;2.42;1.55;;;;;;;;;;4392722;32;20065;-72
2021/10/13 21:46:52;;;;;;;2.08;1.40;;;;;;;;;;4405365;32;20074;-72
2021/10/13 21:49:19;;;;;;;3.45;1.60;;;;;;;;;;4392884;32;20065;-72
2021/10/13 21:51:45;;;;;;;3.75;1.50;;;;;;;;;;4405365;32;20230;-72
2021/10/13 21:54:12;;;;;;;2.80;1.30;;;;;;;;;;4404971;32;20124;-72
2021/10/13 21:56:39;;;;;;;4.15;1.48;;;;;;;;;;4392639;32;20065;-73
2021/10/13 21:59:05;;;;;;;3.92;1.60;;;;;;;;;;4392912;32;20097;-71
2021/10/13 22:01:32;;;;;;;2.92;1.70;;;;;;;;;;4392502;32;20155;-72
2021/10/13 22:03:58;;;;;;;1.77;1.33;;;;;;;;;;4405068;32;20149;-73
2021/10/13 22:06:24;;;;;;;2.25;1.35;;;;;;;;;;4404643;32;20084;-72
2021/10/13 22:08:51;;;;;;;2.58;1.62;;;;;;;;;;4404719;32;20072;-72
2021/10/13 22:11:17;;;;;;;4.25;2.00;;;;;;;;;;4404834;32;20584;-72
2021/10/13 22:13:44;;;;;;;3.45;1.52;;;;;;;;;;4392452;32;20462;-73
2021/10/13 22:16:10;;;;;;;2.15;1.40;;;;;;;;;;4391846;32;20077;-72
2021/10/13 22:18:37;;;;;;;3.35;1.27;;;;;;;;;;4396871;32;20081;-72
2021/10/13 22:21:04;;;;;;;5.20;1.73;;;;;;;;;;4394805;32;20081;-72
2021/10/13 22:23:30;;;;;;;1.35;1.05;;;;;;;;;;4407460;32;20144;-72
2021/10/13 22:25:57;;;;;;;2.47;1.62;;;;;;;;;;4381972;32;20536;-72
2021/10/13 22:28:24;;;;;;;2.25;1.87;;;;;;;;;;4382419;32;20152;-72
2021/10/13 22:30:50;;;;;;;3.62;1.58;;;;;;;;;;4369716;32;20169;-71
2021/10/13 22:33:17;;;;;;;2.20;1.37;;;;;;;;;;4407776;32;20063;-72
2021/10/13 22:35:43;;;;;;;2.15;1.50;;;;;;;;;;4394325;32;20077;-72
2021/10/13 22:38:10;;;;;;;1.65;1.37;;;;;;;;;;4408533;32;20111;-72
2021/10/13 22:40:36;;;;;;;3.20;1.30;;;;;;;;;;4406803;32;20080;-73
2021/10/13 22:43:03;;;;;;;1.95;1.30;;;;;;;;;;4381531;32;20085;-73
2021/10/13 22:45:29;;;;;;;1.80;1.33;;;;;;;;;;4394870;32;20088;-72
2021/10/13 22:47:56;;;;;;;1.58;1.17;;;;;;;;;;4407036;32;20506;-72
2021/10/13 22:50:26;;;;;;;3.60;1.55;;;;;;;;;;4381759;32;20086;-72
2021/10/13 22:52:59;;;;;;;4.45;1.48;;;;;;;;;;4407699;32;20149;-72
2021/10/13 22:55:27;;;;;;;2.42;1.45;;;;;;;;;;4395798;32;20070;-71
2021/10/13 22:57:53;;;;;;;3.65;1.58;;;;;;;;;;4400677;32;20076;-71
2021/10/13 23:00:20;;;;;;;2.20;1.37;;;;;;;;;;4387870;32;20440;-72
2021/10/13 23:02:46;;;;;;;3.03;1.60;;;;;;;;;;4381906;32;20527;-72
2021/10/13 23:05:13;;;;;;;3.37;1.67;;;;;;;;;;4393906;32;20083;-72
2021/10/13 23:07:39;;;;;;;2.05;1.65;;;;;;;;;;4393731;32;20162;-72
2021/10/13 23:10:06;;;;;;;1.92;1.70;;;;;;;;;;4406334;32;20095;-72
2021/10/13 23:12:33;;;;;;;1.87;1.10;;;;;;;;;;4381464;32;20189;-72
2021/10/13 23:15:00;;;;;;;4.03;1.05;;;;;;;;;;4381310;32;20514;-72
2021/10/13 23:17:26;;;;;;;2.40;1.77;;;;;;;;;;4406598;32;20084;-72
2021/10/13 23:19:53;;;;;;;3.00;1.52;;;;;;;;;;4381098;32;20057;-72
2021/10/13 23:22:19;;;;;;;3.42;1.58;;;;;;;;;;4406434;32;20085;-72
2021/10/13 23:24:46;;;;;;;3.35;1.70;;;;;;;;;;4406758;32;20089;-73
2021/10/13 23:27:12;;;;;;;2.08;1.33;;;;;;;;;;4393913;32;20061;-72
2021/10/13 23:29:39;;;;;;;1.62;1.10;;;;;;;;;;4405840;32;20100;-72
2021/10/13 23:32:06;;;;;;;3.00;1.40;;;;;;;;;;4369035;32;20086;-72
2021/10/13 23:34:32;;;;;;;1.85;1.23;;;;;;;;;;4368940;32;20081;-71
2021/10/13 23:36:59;;;;;;;1.35;1.02;;;;;;;;;;4393959;32;20503;-72
2021/10/13 23:39:25;;;;;;;2.10;1.20;;;;;;;;;;4381152;32;20072;-72
2021/10/13 23:41:51;;;;;;;2.30;1.20;;;;;;;;;;4394075;32;20076;-73
2021/10/13 23:44:18;;;;;;;1.60;1.23;;;;;;;;;;4406154;32;20093;-72
2021/10/13 23:46:44;;;;;;;2.53;1.05;;;;;;;;;;4393603;32;20065;-72
2021/10/13 23:49:11;;;;;;;2.62;1.02;;;;;;;;;;4407483;32;20508;-72
2021/10/13 23:51:37;;;;;;;6.25;1.70;;;;;;;;;;4393160;32;20073;-72
2021/10/13 23:54:04;;;;;;;1.80;1.20;;;;;;;;;;4393354;32;20069;-72
2021/10/13 23:56:30;;;;;;;2.95;1.50;;;;;;;;;;4407039;32;20453;-72
2021/10/13 23:58:57;;;;;;;2.42;1.50;;;;;;;;;;4393859;32;20077;-72
